TimeCDT,TemperatureF,Dew PointF,Humidity,Sea Level PressureIn,VisibilityMPH,Wind Direction,Wind SpeedMPH,Gust SpeedMPH,PrecipitationIn,Events,Conditions,WindDirDegrees,DateUTC
12:53 AM,72.0,41.0,33,29.35,10.0,South,19.6,27.6,N/A,,Clear,170,2013-04-09 05:53:00
1:53 AM,66.0,39.9,38,29.37,10.0,SSE,17.3,-,N/A,,Partly Cloudy,150,2013-04-09 06:53:00
2:53 AM,66.0,50.0,56,29.37,10.0,South,18.4,-,N/A,,Partly Cloudy,180,2013-04-09 07:53:00
3:53 AM,66.0,54.0,65,29.36,10.0,South,18.4,-,N/A,,Scattered Clouds,170,2013-04-09 08:53:00
4:36 AM,66.2,57.2,73,29.51,8.0,South,23.0,-,N/A,,Mostly Cloudy,170,2013-04-09 09:36:00
4:53 AM,66.9,59.0,76,29.35,7.0,South,26.5,32.2,N/A,,Overcast,170,2013-04-09 09:53:00
5:53 AM,66.0,60.1,81,29.36,7.0,South,19.6,27.6,N/A,,Overcast,170,2013-04-09 10:53:00
6:53 AM,66.0,60.1,81,29.38,7.0,South,23.0,27.6,N/A,,Overcast,180,2013-04-09 11:53:00
7:22 AM,66.2,60.8,83,29.54,7.0,South,21.9,-,N/A,,Overcast,180,2013-04-09 12:22:00
7:53 AM,64.9,60.1,84,29.40,7.0,South,23.0,29.9,N/A,,Overcast,190,2013-04-09 12:53:00
8:51 AM,66.2,60.8,83,29.57,7.0,SSW,26.5,32.2,N/A,,Scattered Clouds,200,2013-04-09 13:51:00
8:53 AM,66.0,60.1,81,29.43,7.0,SSW,20.7,32.2,N/A,,Scattered Clouds,200,2013-04-09 13:53:00
9:53 AM,70.0,57.0,63,29.43,10.0,SSW,25.3,29.9,N/A,,Partly Cloudy,210,2013-04-09 14:53:00
10:53 AM,75.9,50.0,40,29.43,10.0,SSW,25.3,36.8,N/A,,Partly Cloudy,210,2013-04-09 15:53:00
11:53 AM,80.1,41.0,25,29.44,10.0,WSW,25.3,31.1,N/A,,Partly Cloudy,240,2013-04-09 16:53:00
12:53 PM,80.1,33.1,18,29.45,10.0,West,19.6,31.1,N/A,,Scattered Clouds,260,2013-04-09 17:53:00
1:26 PM,73.4,37.4,27,29.61,3.0,North,24.2,39.1,N/A,,Widespread Dust,360,2013-04-09 18:26:00
1:53 PM,72.0,37.9,29,29.50,4.0,North,24.2,32.2,N/A,,Widespread Dust,10,2013-04-09 18:53:00
2:53 PM,66.0,34.0,30,29.52,4.0,North,25.3,34.5,N/A,,Widespread Dust,10,2013-04-09 19:53:00
3:53 PM,61.0,30.0,31,29.55,4.0,North,25.3,34.5,N/A,,Widespread Dust,10,2013-04-09 20:53:00
4:44 PM,57.2,28.4,33,29.68,4.0,North,27.6,36.8,N/A,,Widespread Dust,350,2013-04-09 21:44:00
4:53 PM,55.0,28.0,35,29.59,4.0,North,31.1,40.3,N/A,,Widespread Dust,360,2013-04-09 21:53:00
5:53 PM,48.0,25.0,41,29.64,4.0,North,31.1,40.3,N/A,,Widespread Dust,10,2013-04-09 22:53:00
6:53 PM,45.0,25.0,46,29.65,6.0,North,28.8,36.8,N/A,,Widespread Dust,10,2013-04-09 23:53:00
7:37 PM,42.8,24.8,49,29.74,7.0,NNE,26.5,33.4,N/A,,Mostly Cloudy,20,2013-04-10 00:37:00
7:53 PM,42.1,24.1,49,29.67,7.0,North,24.2,36.8,N/A,,Mostly Cloudy,10,2013-04-10 00:53:00
8:53 PM,39.0,21.0,49,29.74,9.0,North,24.2,39.1,N/A,,Mostly Cloudy,360,2013-04-10 01:53:00
9:53 PM,37.0,19.9,50,29.78,9.0,North,21.9,32.2,N/A,,Overcast,10,2013-04-10 02:53:00
10:53 PM,35.1,17.1,48,29.81,8.0,NNE,23.0,35.7,N/A,,Mostly Cloudy,20,2013-04-10 03:53:00
11:53 PM,34.0,15.1,46,29.83,6.0,North,19.6,33.4,0.00,,Widespread Dust,10,2013-04-10 04:53:00